createdAt,value
2022-10-19T00:00:08.913Z,0.00
2022-10-19T00:01:08.889Z,0.00
2022-10-19T00:02:08.919Z,0.00
2022-10-19T00:03:08.862Z,0.00
2022-10-19T00:04:09.074Z,0.00
2022-10-19T00:05:08.876Z,0.00
2022-10-19T00:06:08.848Z,0.00
2022-10-19T00:07:08.832Z,0.00
2022-10-19T00:08:08.844Z,0.00
2022-10-19T00:09:08.816Z,0.00
2022-10-19T00:10:08.839Z,0.00
2022-10-19T00:11:08.810Z,0.00
2022-10-19T00:12:08.803Z,0.00
2022-10-19T00:13:08.796Z,0.00
2022-10-19T00:14:08.782Z,0.00
2022-10-19T00:15:08.774Z,0.00
2022-10-19T00:16:11.321Z,0.00
2022-10-19T00:17:08.745Z,0.00
2022-10-19T00:18:08.748Z,0.00
2022-10-19T00:19:08.739Z,0.00
2022-10-19T00:20:08.719Z,0.00
2022-10-19T00:21:08.722Z,0.00
2022-10-19T00:22:11.623Z,0.00
2022-10-19T00:23:09.699Z,0.00
2022-10-19T00:24:08.689Z,0.00
2022-10-19T00:25:08.687Z,0.00
2022-10-19T00:26:08.686Z,0.00
2022-10-19T00:27:08.686Z,0.00
2022-10-19T00:28:08.698Z,0.00
2022-10-19T00:29:08.683Z,0.00
2022-10-19T00:30:08.714Z,0.00
2022-10-19T00:31:08.646Z,0.00
2022-10-19T00:32:08.635Z,0.00
2022-10-19T00:33:08.629Z,0.00
2022-10-19T00:34:08.650Z,0.00
2022-10-19T00:35:08.608Z,0.00
2022-10-19T00:36:08.590Z,0.00
2022-10-19T00:37:08.601Z,0.00
2022-10-19T00:38:08.583Z,0.00
2022-10-19T00:39:08.568Z,0.00
2022-10-19T00:40:08.581Z,0.00
2022-10-19T00:41:08.548Z,0.00
2022-10-19T00:42:08.538Z,0.00
2022-10-19T00:43:08.537Z,0.00
2022-10-19T00:44:08.525Z,0.00
2022-10-19T00:45:08.529Z,0.00
2022-10-19T00:46:08.536Z,0.00
2022-10-19T00:47:08.502Z,0.00
2022-10-19T00:48:08.508Z,0.00
2022-10-19T00:49:10.733Z,0.00
2022-10-19T00:50:08.510Z,0.00
2022-10-19T00:51:08.467Z,0.00
2022-10-19T00:52:08.593Z,0.00
2022-10-19T00:53:08.456Z,0.00
2022-10-19T00:54:08.489Z,0.00
2022-10-19T00:55:08.447Z,0.00
2022-10-19T00:56:08.430Z,0.00
2022-10-19T00:57:08.426Z,0.00
2022-10-19T00:58:08.425Z,0.00
2022-10-19T00:59:08.453Z,0.00
2022-10-19T01:00:08.410Z,0.00
2022-10-19T01:01:08.445Z,0.00
2022-10-19T01:02:08.409Z,0.00
2022-10-19T01:03:08.374Z,0.00
2022-10-19T01:04:08.361Z,0.00
2022-10-19T01:05:08.381Z,0.00
2022-10-19T01:06:08.361Z,0.00
2022-10-19T01:07:08.353Z,0.00
2022-10-19T01:08:08.347Z,0.00
2022-10-19T01:09:08.328Z,0.00
2022-10-19T01:10:08.350Z,0.00
2022-10-19T01:11:08.320Z,0.00
2022-10-19T01:12:08.313Z,0.00
2022-10-19T01:13:08.294Z,0.00
2022-10-19T01:14:08.288Z,0.00
2022-10-19T01:15:08.274Z,0.00
2022-10-19T01:16:08.293Z,0.00
2022-10-19T01:17:08.269Z,0.00
2022-10-19T01:18:08.256Z,0.00
2022-10-19T01:19:08.247Z,0.00
2022-10-19T01:20:08.330Z,0.00
2022-10-19T01:21:08.224Z,0.00
2022-10-19T01:22:08.255Z,0.00
2022-10-19T01:23:08.211Z,0.00
2022-10-19T01:24:08.216Z,0.00
2022-10-19T01:25:08.213Z,0.00
2022-10-19T01:26:08.203Z,0.00
2022-10-19T01:27:08.210Z,0.00
2022-10-19T01:28:08.210Z,0.00
2022-10-19T01:29:08.240Z,0.00
2022-10-19T01:30:08.169Z,0.00
2022-10-19T01:31:08.147Z,0.00
2022-10-19T01:32:08.149Z,0.00
2022-10-19T01:33:08.161Z,0.00
2022-10-19T01:34:08.176Z,0.00
2022-10-19T01:35:08.117Z,0.00
2022-10-19T01:36:08.118Z,0.00
2022-10-19T01:37:08.092Z,0.00
2022-10-19T01:38:08.168Z,0.00
2022-10-19T01:39:08.107Z,0.00
2022-10-19T01:40:08.100Z,0.00
2022-10-19T01:41:08.069Z,0.00
2022-10-19T01:42:08.070Z,0.00
2022-10-19T01:43:08.056Z,0.00
2022-10-19T01:44:08.051Z,0.00
2022-10-19T01:45:08.051Z,0.00
2022-10-19T01:46:08.051Z,0.00
2022-10-19T01:47:08.042Z,0.00
2022-10-19T01:48:08.075Z,0.00
2022-10-19T01:49:07.998Z,0.00
2022-10-19T01:50:07.996Z,0.00
2022-10-19T01:51:07.990Z,0.00
2022-10-19T01:52:07.993Z,0.00
2022-10-19T01:53:08.005Z,0.00
2022-10-19T01:54:07.977Z,0.00
2022-10-19T01:55:07.951Z,0.00
2022-10-19T01:56:07.947Z,0.00
2022-10-19T01:57:07.972Z,0.00
2022-10-19T01:58:09.556Z,0.00
2022-10-19T01:59:07.916Z,0.00
2022-10-19T02:00:07.917Z,0.00
2022-10-19T02:01:08.060Z,0.00
2022-10-19T02:02:07.900Z,0.00
2022-10-19T02:03:07.896Z,0.00
2022-10-19T02:04:07.997Z,0.00
2022-10-19T02:05:07.878Z,0.00
2022-10-19T02:06:07.863Z,0.00
2022-10-19T02:07:07.859Z,0.00
2022-10-19T02:08:07.868Z,0.00
2022-10-19T02:09:07.835Z,0.00
2022-10-19T02:10:07.898Z,0.00
2022-10-19T02:11:07.814Z,0.00
2022-10-19T02:12:07.808Z,0.00
2022-10-19T02:13:07.857Z,0.00
2022-10-19T02:14:07.798Z,0.00
2022-10-19T02:15:07.814Z,0.00
2022-10-19T02:16:07.775Z,0.00
2022-10-19T02:17:07.770Z,0.00
2022-10-19T02:18:07.763Z,0.00
2022-10-19T02:19:07.752Z,0.00
2022-10-19T02:20:07.787Z,0.00
2022-10-19T02:21:07.765Z,0.00
2022-10-19T02:22:07.745Z,0.00
2022-10-19T02:23:07.712Z,0.00
2022-10-19T02:24:07.713Z,0.00
2022-10-19T02:25:07.696Z,0.00
2022-10-19T02:26:07.728Z,0.00
2022-10-19T02:27:07.695Z,0.00
2022-10-19T02:28:07.669Z,0.00
2022-10-19T02:29:07.670Z,0.00
2022-10-19T02:30:07.659Z,0.00
2022-10-19T02:31:07.645Z,0.00
2022-10-19T02:32:07.682Z,0.00
2022-10-19T02:33:07.675Z,0.00
2022-10-19T02:34:07.617Z,0.00
2022-10-19T02:35:07.611Z,0.00
2022-10-19T02:36:07.618Z,0.00
2022-10-19T02:37:07.598Z,0.00
2022-10-19T02:38:07.623Z,0.00
2022-10-19T02:39:07.607Z,0.00
2022-10-19T02:40:07.576Z,0.00
2022-10-19T02:41:07.592Z,0.00
2022-10-19T02:42:07.558Z,0.00
2022-10-19T02:43:07.540Z,0.00
2022-10-19T02:44:07.545Z,0.00
2022-10-19T02:45:07.525Z,0.00
2022-10-19T02:46:07.520Z,0.00
2022-10-19T02:47:07.535Z,0.00
2022-10-19T02:48:07.511Z,0.00
2022-10-19T02:49:07.494Z,0.00
2022-10-19T02:50:07.483Z,0.00
2022-10-19T02:51:07.497Z,0.00
2022-10-19T02:52:07.470Z,0.00
2022-10-19T02:53:07.466Z,0.00
2022-10-19T02:54:07.450Z,0.00
2022-10-19T02:55:07.485Z,0.00
2022-10-19T02:56:07.464Z,0.00
2022-10-19T02:57:07.435Z,0.00
2022-10-19T02:58:07.476Z,0.00
2022-10-19T02:59:07.419Z,0.00
2022-10-19T03:00:07.492Z,0.00
2022-10-19T03:02:33.025Z,0.00
2022-10-19T03:03:33.043Z,0.00
2022-10-19T03:04:33.031Z,0.00
2022-10-19T03:05:33.070Z,0.00
2022-10-19T03:06:33.013Z,0.00
2022-10-19T03:07:33.172Z,0.00
2022-10-19T03:08:32.996Z,0.00
2022-10-19T03:09:33.030Z,0.00
2022-10-19T03:10:32.979Z,0.00
2022-10-19T03:11:32.993Z,0.00
2022-10-19T03:12:32.994Z,0.00
2022-10-19T03:13:33.068Z,0.00
2022-10-19T03:14:32.959Z,0.00
2022-10-19T03:15:32.945Z,0.00
2022-10-19T03:16:32.931Z,0.00
2022-10-19T03:17:33.384Z,0.00
2022-10-19T03:18:32.944Z,0.00
2022-10-19T03:19:32.926Z,0.00
2022-10-19T03:20:32.913Z,0.00
2022-10-19T03:21:32.923Z,0.00
2022-10-19T03:22:32.879Z,0.00
2022-10-19T03:23:32.875Z,0.00
2022-10-19T03:24:32.896Z,0.00
2022-10-19T03:25:32.877Z,0.00
2022-10-19T03:26:32.846Z,0.00
2022-10-19T03:27:33.235Z,0.00
2022-10-19T03:28:32.875Z,0.00
2022-10-19T03:29:32.815Z,0.00
2022-10-19T03:30:32.880Z,0.00
2022-10-19T03:31:32.798Z,0.00
2022-10-19T03:32:32.858Z,0.00
2022-10-19T03:33:32.791Z,0.00
2022-10-19T03:34:32.774Z,0.00
2022-10-19T03:35:32.768Z,0.00
2022-10-19T03:36:32.921Z,0.00
2022-10-19T03:37:33.024Z,0.00
2022-10-19T03:38:32.761Z,0.00
2022-10-19T03:39:32.760Z,0.00
2022-10-19T03:40:32.782Z,0.00
2022-10-19T03:41:32.777Z,0.00
2022-10-19T03:42:32.721Z,0.00
2022-10-19T03:43:32.883Z,0.00
2022-10-19T03:44:32.711Z,0.00
2022-10-19T03:45:32.691Z,0.00
2022-10-19T03:46:32.699Z,0.00
2022-10-19T03:47:32.981Z,0.00
2022-10-19T03:48:32.659Z,0.00
2022-10-19T03:49:34.616Z,0.00
2022-10-19T03:50:32.642Z,0.00
2022-10-19T03:51:32.653Z,0.00
2022-10-19T03:52:32.633Z,0.00
2022-10-19T03:53:33.274Z,0.00
2022-10-19T03:54:32.620Z,0.00
2022-10-19T03:55:32.602Z,0.00
2022-10-19T03:56:32.646Z,0.00
2022-10-19T03:57:33.106Z,0.00
2022-10-19T03:58:32.587Z,0.00
2022-10-19T03:59:32.571Z,0.00
2022-10-19T04:00:32.567Z,0.00
2022-10-19T04:01:32.612Z,0.00
2022-10-19T04:02:32.558Z,0.00
2022-10-19T04:03:32.599Z,0.00
2022-10-19T04:04:32.528Z,0.00
2022-10-19T04:05:32.517Z,0.00
2022-10-19T04:06:32.530Z,0.00
2022-10-19T04:07:32.704Z,0.00
2022-10-19T04:08:32.494Z,0.00
2022-10-19T04:09:32.510Z,0.00
2022-10-19T04:10:32.479Z,0.00
2022-10-19T04:11:32.466Z,0.00
2022-10-19T04:12:32.458Z,0.00
2022-10-19T04:13:32.446Z,0.00
2022-10-19T04:14:39.228Z,0.00
2022-10-19T04:15:33.446Z,0.00
2022-10-19T04:16:32.434Z,0.00
2022-10-19T04:17:32.756Z,0.00
2022-10-19T04:18:32.401Z,0.00
2022-10-19T04:19:32.394Z,0.00
2022-10-19T04:20:32.377Z,0.00
2022-10-19T04:21:32.674Z,0.00
2022-10-19T04:22:32.367Z,0.00
2022-10-19T04:23:32.357Z,0.00
2022-10-19T04:24:32.343Z,0.00
2022-10-19T04:25:32.339Z,0.00
2022-10-19T04:26:32.336Z,0.00
2022-10-19T04:27:32.569Z,0.00
2022-10-19T04:28:32.402Z,0.00
2022-10-19T04:29:32.305Z,0.00
2022-10-19T04:30:32.294Z,0.00
2022-10-19T04:31:32.320Z,0.00
2022-10-19T04:32:32.283Z,0.00
2022-10-19T04:33:32.362Z,0.00
2022-10-19T04:34:35.191Z,0.00
2022-10-19T04:35:33.246Z,0.00
2022-10-19T04:36:32.233Z,0.00
2022-10-19T04:37:32.653Z,0.00
2022-10-19T04:38:32.220Z,0.00
2022-10-19T04:39:32.216Z,0.00
2022-10-19T04:40:32.213Z,0.00
2022-10-19T04:41:32.208Z,0.00
2022-10-19T04:42:32.182Z,0.00
2022-10-19T04:43:32.218Z,0.00
2022-10-19T04:44:32.178Z,0.00
2022-10-19T04:45:32.167Z,0.00
2022-10-19T04:46:32.148Z,0.00
2022-10-19T04:47:32.591Z,0.00
2022-10-19T04:48:32.134Z,0.00
2022-10-19T04:49:32.163Z,0.00
2022-10-19T04:50:32.140Z,0.00
2022-10-19T04:51:32.138Z,0.00
2022-10-19T04:52:32.212Z,0.00
2022-10-19T04:53:32.100Z,0.00
2022-10-19T04:54:32.133Z,0.00
2022-10-19T04:55:32.096Z,0.00
2022-10-19T04:56:32.105Z,0.00
2022-10-19T04:57:32.513Z,0.00
2022-10-19T04:58:32.044Z,0.00
2022-10-19T04:59:32.038Z,0.00
2022-10-19T05:00:32.052Z,0.00
2022-10-19T05:01:32.090Z,0.00
2022-10-19T05:02:32.032Z,0.00
2022-10-19T05:03:32.013Z,0.00
2022-10-19T05:04:31.990Z,0.00
2022-10-19T05:05:31.985Z,0.00
2022-10-19T05:06:31.992Z,0.00
2022-10-19T05:07:32.216Z,0.00
2022-10-19T05:08:31.986Z,0.00
2022-10-19T05:09:31.961Z,0.00
2022-10-19T05:10:31.970Z,0.00
2022-10-19T05:11:31.957Z,0.00
2022-10-19T05:12:31.931Z,1.00
2022-10-19T05:13:31.979Z,1.00
2022-10-19T05:14:31.945Z,0.00
2022-10-19T05:15:31.888Z,1.00
2022-10-19T05:16:31.890Z,0.00
2022-10-19T05:17:32.217Z,0.00
2022-10-19T05:18:31.875Z,1.00
2022-10-19T05:19:31.884Z,1.00
2022-10-19T05:20:31.859Z,1.00
2022-10-19T05:21:31.880Z,1.00
2022-10-19T05:22:31.842Z,1.00
2022-10-19T05:24:31.832Z,2.00
2022-10-19T05:25:31.814Z,2.00
2022-10-19T05:26:31.847Z,2.00
2022-10-19T05:27:32.186Z,3.00
2022-10-19T05:28:31.885Z,5.00
2022-10-19T05:29:31.920Z,5.00
2022-10-19T05:30:31.771Z,5.00
2022-10-19T05:31:31.769Z,9.00
2022-10-19T05:32:31.883Z,9.00
2022-10-19T05:33:31.768Z,9.00
2022-10-19T05:34:31.746Z,12.00
2022-10-19T05:35:31.729Z,14.00
2022-10-19T05:36:31.729Z,17.00
2022-10-19T05:37:32.067Z,19.00
2022-10-19T05:38:31.706Z,24.00
2022-10-19T05:39:31.726Z,24.00
2022-10-19T05:40:31.687Z,26.00
2022-10-19T05:41:31.685Z,32.00
2022-10-19T05:42:31.688Z,32.00
2022-10-19T05:43:31.661Z,37.00
2022-10-19T05:44:31.726Z,42.00
2022-10-19T05:45:31.652Z,44.00
2022-10-19T05:46:31.658Z,48.00
2022-10-19T05:47:31.667Z,54.00
2022-10-19T05:48:31.648Z,55.00
2022-10-19T05:49:31.615Z,61.00
2022-10-19T05:50:31.633Z,63.00
2022-10-19T05:51:31.608Z,68.00
2022-10-19T05:52:31.587Z,72.00
2022-10-19T05:53:31.612Z,79.00
2022-10-19T05:54:31.584Z,90.00
2022-10-19T05:55:31.579Z,98.00
2022-10-19T05:56:31.546Z,106.00
2022-10-19T05:57:31.800Z,116.00
2022-10-19T05:58:31.557Z,129.00
2022-10-19T05:59:31.550Z,142.00
2022-10-19T06:00:31.505Z,151.00
2022-10-19T06:01:31.568Z,171.00
2022-10-19T06:02:31.496Z,175.00
2022-10-19T06:03:31.489Z,177.00
2022-10-19T06:04:31.515Z,184.00
2022-10-19T06:05:31.494Z,187.00
2022-10-19T06:06:31.468Z,193.00
2022-10-19T06:07:31.599Z,203.00
2022-10-19T06:08:31.459Z,220.00
2022-10-19T06:09:31.440Z,226.00
2022-10-19T06:10:31.440Z,234.00
2022-10-19T06:11:31.415Z,256.00
2022-10-19T06:12:31.412Z,285.00
2022-10-19T06:13:31.401Z,279.00
2022-10-19T06:14:31.391Z,294.00
2022-10-19T06:15:31.415Z,317.00
2022-10-19T06:16:31.406Z,339.00
2022-10-19T06:17:31.636Z,342.00
2022-10-19T06:18:31.366Z,353.00
2022-10-19T06:19:31.358Z,389.00
2022-10-19T06:20:31.347Z,389.00
2022-10-19T06:21:31.354Z,391.00
2022-10-19T06:22:31.319Z,391.00
2022-10-19T06:23:31.381Z,413.00
2022-10-19T06:24:31.323Z,444.00
2022-10-19T06:25:31.291Z,442.00
2022-10-19T06:26:31.286Z,467.00
2022-10-19T06:27:31.666Z,459.00
2022-10-19T06:28:31.285Z,463.00
2022-10-19T06:29:31.301Z,475.00
2022-10-19T06:30:31.287Z,451.00
2022-10-19T06:31:31.248Z,422.00
2022-10-19T06:32:31.320Z,422.00
2022-10-19T06:33:31.255Z,456.00
2022-10-19T06:34:31.275Z,479.00
2022-10-19T06:35:31.223Z,486.00
2022-10-19T06:36:31.204Z,492.00
2022-10-19T06:37:31.359Z,526.00
2022-10-19T06:38:31.195Z,576.00
2022-10-19T06:39:31.273Z,606.00
2022-10-19T06:40:31.267Z,588.00
2022-10-19T06:41:31.173Z,562.00
2022-10-19T06:42:31.146Z,505.00
2022-10-19T06:43:31.145Z,495.00
2022-10-19T06:44:31.159Z,511.00
2022-10-19T06:45:35.582Z,521.00
2022-10-19T06:46:31.146Z,526.00
2022-10-19T06:47:31.210Z,536.00
2022-10-19T06:48:31.100Z,542.00
2022-10-19T06:49:31.084Z,515.00
2022-10-19T06:50:31.091Z,503.00
2022-10-19T06:51:31.094Z,508.00
2022-10-19T06:52:31.308Z,511.00
2022-10-19T06:53:31.072Z,529.00
2022-10-19T06:54:31.043Z,546.00
2022-10-19T06:55:31.039Z,550.00
2022-10-19T06:56:31.052Z,561.00
2022-10-19T06:57:31.041Z,589.00
2022-10-19T06:58:31.049Z,626.00
2022-10-19T06:59:31.252Z,653.00
2022-10-19T07:00:31.061Z,666.00
2022-10-19T07:01:31.014Z,687.00
2022-10-19T07:02:31.083Z,678.00
2022-10-19T07:03:31.070Z,664.00
2022-10-19T07:04:30.953Z,690.00
2022-10-19T07:05:30.957Z,682.00
2022-10-19T07:06:30.957Z,618.00
2022-10-19T07:07:31.098Z,643.00
2022-10-19T07:08:31.105Z,648.00
2022-10-19T07:09:30.978Z,635.00
2022-10-19T07:10:31.550Z,652.00
2022-10-19T07:11:30.906Z,668.00
2022-10-19T07:12:30.898Z,651.00
2022-10-19T07:13:30.996Z,626.00
2022-10-19T07:14:30.939Z,631.00
2022-10-19T07:15:30.883Z,646.00
2022-10-19T07:16:30.869Z,648.00
2022-10-19T07:17:30.890Z,639.00
2022-10-19T07:18:30.860Z,618.00
2022-10-19T07:19:30.848Z,627.00
2022-10-19T07:20:30.838Z,626.00
2022-10-19T07:21:30.814Z,621.00
2022-10-19T07:22:30.804Z,632.00
2022-10-19T07:23:30.793Z,585.00
2022-10-19T07:24:30.788Z,556.00
2022-10-19T07:25:30.809Z,559.00
2022-10-19T07:26:30.793Z,572.00
2022-10-19T07:27:35.283Z,622.00
2022-10-19T07:28:31.770Z,661.00
2022-10-19T07:29:30.761Z,711.00
2022-10-19T07:30:30.744Z,676.00
2022-10-19T07:31:30.790Z,725.00
2022-10-19T07:32:30.764Z,770.00
2022-10-19T07:33:30.728Z,830.00
2022-10-19T07:34:30.709Z,912.00
2022-10-19T07:35:30.728Z,993.00
2022-10-19T07:36:30.701Z,851.00
2022-10-19T07:37:30.742Z,834.00
2022-10-19T07:38:30.665Z,883.00
2022-10-19T07:39:30.663Z,890.00
2022-10-19T07:40:30.664Z,923.00
2022-10-19T07:41:30.652Z,1112.00
2022-10-19T07:42:30.649Z,1103.00
2022-10-19T07:43:30.670Z,1043.00
2022-10-19T07:44:31.478Z,1047.00
2022-10-19T07:45:30.622Z,1082.00
2022-10-19T07:46:30.612Z,1177.00
2022-10-19T07:47:30.810Z,1292.00
2022-10-19T07:48:30.594Z,1432.00
2022-10-19T07:49:30.625Z,1572.00
2022-10-19T07:50:30.569Z,1575.00
2022-10-19T07:51:30.572Z,1511.00
2022-10-19T07:52:33.073Z,1554.00
2022-10-19T07:53:31.639Z,1762.00
2022-10-19T07:54:30.568Z,1724.00
2022-10-19T07:55:30.559Z,1659.00
2022-10-19T07:56:30.769Z,1673.00
2022-10-19T07:57:30.560Z,1748.00
2022-10-19T07:58:30.510Z,1845.00
2022-10-19T07:59:30.497Z,2019.00
2022-10-19T08:00:30.552Z,2072.00
2022-10-19T08:01:30.474Z,2157.00
2022-10-19T08:02:39.496Z,2299.00
2022-10-19T08:04:31.327Z,2280.00
2022-10-19T08:04:59.026Z,2067.00
2022-10-19T08:05:31.463Z,1813.00
2022-10-19T08:06:30.454Z,1954.00
2022-10-19T08:07:30.424Z,2203.00
2022-10-19T08:08:30.475Z,1982.00
2022-10-19T08:10:31.404Z,1867.00
2022-10-19T08:11:30.403Z,1943.00
2022-10-19T08:12:30.406Z,1906.00
2022-10-19T08:13:30.389Z,1905.00
2022-10-19T08:14:30.376Z,1994.00
2022-10-19T08:15:30.365Z,2052.00
2022-10-19T08:16:30.418Z,2283.00
2022-10-19T08:17:30.348Z,2859.00
2022-10-19T08:18:30.332Z,2933.00
2022-10-19T08:19:30.319Z,3259.00
2022-10-19T08:20:30.345Z,3191.00
2022-10-19T08:21:30.321Z,4522.00
2022-10-19T08:22:30.299Z,3692.00
2022-10-19T08:23:30.306Z,3188.00
2022-10-19T08:24:30.282Z,2812.00
2022-10-19T08:25:30.297Z,3042.00
2022-10-19T08:26:30.262Z,2965.00
2022-10-19T08:27:30.308Z,2759.00
2022-10-19T08:28:30.364Z,3047.00
2022-10-19T08:29:31.538Z,2858.00
2022-10-19T08:30:30.228Z,2868.00
2022-10-19T08:31:30.222Z,3084.00
2022-10-19T08:32:30.209Z,2751.00
2022-10-19T08:33:30.201Z,3569.00
2022-10-19T08:34:30.203Z,4058.00
2022-10-19T08:35:30.212Z,5143.00
2022-10-19T08:36:30.180Z,4486.00
2022-10-19T08:37:44.138Z,5258.00
2022-10-19T08:38:31.162Z,4640.00
2022-10-19T08:39:30.160Z,5089.00
2022-10-19T08:40:30.156Z,3972.00
2022-10-19T08:41:30.201Z,4701.00
2022-10-19T08:42:30.135Z,5214.00
2022-10-19T08:43:30.130Z,15101.00
2022-10-19T08:44:30.151Z,16418.00
2022-10-19T08:45:30.150Z,10177.00
2022-10-19T08:46:30.127Z,6986.00
2022-10-19T08:47:30.126Z,7753.00
2022-10-19T08:48:30.106Z,19560.00
2022-10-19T08:49:30.113Z,9272.00
2022-10-19T08:50:30.075Z,7269.00
2022-10-19T08:51:30.079Z,16832.00
2022-10-19T08:52:34.224Z,6095.00
2022-10-19T08:53:30.060Z,62734.00
2022-10-19T08:54:30.022Z,61940.00
2022-10-19T08:55:30.045Z,63399.00
2022-10-19T08:56:49.874Z,63176.00
2022-10-19T08:57:31.151Z,61489.00
2022-10-19T08:58:29.988Z,61807.00
2022-10-19T08:59:30.021Z,16624.00
2022-10-19T09:00:29.994Z,62931.00
2022-10-19T09:01:32.686Z,61579.00
2022-10-19T09:03:56.886Z,30031.00
2022-10-19T09:04:56.672Z,62709.00
2022-10-19T09:05:56.631Z,61526.00
2022-10-19T09:06:56.630Z,61591.00
2022-10-19T09:07:56.583Z,61565.00
2022-10-19T09:08:56.600Z,61725.00
2022-10-19T09:09:56.574Z,61649.00
2022-10-19T09:10:56.561Z,62720.00
2022-10-19T09:11:56.598Z,62278.00
2022-10-19T09:12:58.488Z,61858.00
2022-10-19T09:14:07.988Z,62143.00
2022-10-19T09:14:57.529Z,62565.00
2022-10-19T09:15:56.528Z,63055.00
2022-10-19T09:16:56.518Z,62875.00
2022-10-19T09:17:56.531Z,32113.00
2022-10-19T09:18:56.525Z,61615.00
2022-10-19T09:19:56.485Z,61721.00
2022-10-19T09:20:57.446Z,61803.00
2022-10-19T09:21:56.635Z,61779.00
2022-10-19T09:22:56.502Z,61687.00
2022-10-19T09:23:56.469Z,61785.00
2022-10-19T09:24:56.610Z,61749.00
2022-10-19T09:25:56.437Z,61729.00
2022-10-19T09:26:56.561Z,61774.00
2022-10-19T09:27:56.445Z,61785.00
2022-10-19T09:28:56.442Z,61873.00
2022-10-19T09:29:56.422Z,61956.00
2022-10-19T09:30:56.632Z,61956.00
2022-10-19T09:31:56.385Z,62035.00
2022-10-19T09:32:56.387Z,62060.00
2022-10-19T09:33:56.386Z,61995.00
2022-10-19T09:34:56.399Z,61980.00
2022-10-19T09:35:56.414Z,62065.00
2022-10-19T09:36:56.374Z,62067.00
2022-10-19T09:37:56.965Z,61984.00
2022-10-19T09:38:56.351Z,62073.00
2022-10-19T09:39:56.443Z,61872.00
2022-10-19T09:40:56.317Z,61977.00
2022-10-19T09:41:56.342Z,61799.00
2022-10-19T09:42:56.310Z,61872.00
2022-10-19T09:43:56.290Z,61977.00
2022-10-19T09:44:56.298Z,61878.00
2022-10-19T09:45:56.311Z,61837.00
2022-10-19T09:46:56.279Z,61814.00
2022-10-19T09:48:00.417Z,61890.00
2022-10-19T09:48:57.256Z,61888.00
2022-10-19T09:49:56.778Z,61965.00
2022-10-19T09:50:56.283Z,61845.00
2022-10-19T09:51:56.247Z,61925.00
2022-10-19T09:52:56.225Z,62034.00
2022-10-19T09:53:56.251Z,62137.00
2022-10-19T09:54:56.224Z,61977.00
2022-10-19T09:55:56.984Z,61869.00
2022-10-19T09:56:56.223Z,62421.00
2022-10-19T09:57:56.191Z,62004.00
2022-10-19T09:58:56.183Z,61959.00
2022-10-19T09:59:56.183Z,62069.00
2022-10-19T10:00:56.306Z,61851.00
2022-10-19T10:01:56.287Z,61844.00
2022-10-19T10:02:56.285Z,61923.00
2022-10-19T10:03:56.165Z,61979.00
2022-10-19T10:04:56.143Z,61815.00
2022-10-19T10:05:56.474Z,61861.00
2022-10-19T10:06:56.130Z,61910.00
2022-10-19T10:07:56.145Z,61833.00
2022-10-19T10:08:56.351Z,61846.00
2022-10-19T10:09:56.289Z,61837.00
2022-10-19T10:11:03.017Z,61801.00
2022-10-19T10:13:22.670Z,61821.00
2022-10-19T10:14:22.677Z,61795.00
2022-10-19T10:15:22.666Z,61743.00
2022-10-19T10:16:22.977Z,61731.00
2022-10-19T10:17:22.627Z,61732.00
2022-10-19T10:18:22.681Z,61693.00
2022-10-19T10:19:25.345Z,61689.00
2022-10-19T10:20:23.590Z,61710.00
2022-10-19T10:21:25.565Z,61541.00
2022-10-19T10:22:22.606Z,61563.00
2022-10-19T10:23:22.640Z,61536.00
2022-10-19T10:24:22.766Z,61757.00
2022-10-19T10:25:22.622Z,19477.00
2022-10-19T10:26:22.576Z,16048.00
2022-10-19T10:27:22.563Z,20263.00
2022-10-19T10:28:22.555Z,61633.00
2022-10-19T10:29:22.677Z,12129.00
2022-10-19T10:30:22.525Z,61564.00
2022-10-19T10:31:22.556Z,61555.00
2022-10-19T10:32:22.517Z,61649.00
2022-10-19T10:33:33.305Z,61629.00
2022-10-19T10:34:37.472Z,61554.00
2022-10-19T10:35:23.499Z,61595.00
2022-10-19T10:36:22.545Z,61854.00
2022-10-19T10:37:22.508Z,61839.00
2022-10-19T10:38:22.810Z,62538.00
2022-10-19T10:39:22.949Z,61935.00
2022-10-19T10:40:23.603Z,10544.00
2022-10-19T10:41:22.537Z,23716.00
2022-10-19T10:42:22.430Z,15692.00
2022-10-19T10:43:22.522Z,62113.00
2022-10-19T10:44:22.562Z,62059.00
2022-10-19T10:45:22.419Z,62121.00
2022-10-19T10:46:22.415Z,62054.00
2022-10-19T10:47:22.392Z,62129.00
2022-10-19T10:48:23.630Z,62865.00
2022-10-19T10:49:22.418Z,10724.00
2022-10-19T10:50:22.390Z,10669.00
2022-10-19T10:51:22.606Z,23731.00
2022-10-19T10:52:22.361Z,14105.00
2022-10-19T10:53:22.700Z,10340.00
2022-10-19T10:54:22.478Z,16551.00
2022-10-19T10:55:22.336Z,15594.00
2022-10-19T10:56:22.376Z,14749.00
2022-10-19T10:58:25.514Z,13920.00
2022-10-19T10:59:23.333Z,14326.00
2022-10-19T11:00:22.290Z,13834.00
2022-10-19T11:01:22.338Z,14359.00
2022-10-19T11:02:22.330Z,14597.00
2022-10-19T11:03:23.492Z,15398.00
2022-10-19T11:04:22.316Z,16308.00
2022-10-19T11:05:22.306Z,8208.00
2022-10-19T11:06:22.261Z,14792.00
2022-10-19T11:07:22.269Z,10907.00
2022-10-19T11:08:22.233Z,9038.00
2022-10-19T11:09:22.213Z,14618.00
2022-10-19T11:10:23.145Z,14741.00
2022-10-19T11:11:22.286Z,13836.00
2022-10-19T11:12:22.191Z,14415.00
2022-10-19T11:13:22.178Z,14679.00
2022-10-19T11:14:23.158Z,14519.00
2022-10-19T11:15:22.215Z,14811.00
2022-10-19T11:16:22.176Z,14296.00
2022-10-19T11:17:22.186Z,12037.00
2022-10-19T11:18:23.155Z,11801.00
2022-10-19T11:19:22.141Z,7524.00
2022-10-19T11:20:22.187Z,14400.00
2022-10-19T11:21:23.571Z,14488.00
2022-10-19T11:22:24.862Z,8216.00
2022-10-19T11:23:22.109Z,14122.00
2022-10-19T11:24:22.217Z,12960.00
2022-10-19T11:25:22.123Z,13559.00
2022-10-19T11:26:22.123Z,10847.00
2022-10-19T11:27:22.119Z,11338.00
2022-10-19T11:28:22.130Z,12101.00
2022-10-19T11:29:22.055Z,12427.00
2022-10-19T11:30:22.077Z,12611.00
2022-10-19T11:31:22.058Z,12788.00
2022-10-19T11:32:22.023Z,12683.00
2022-10-19T11:33:22.733Z,12697.00
2022-10-19T11:34:25.127Z,12498.00
2022-10-19T11:35:22.017Z,12389.00
2022-10-19T11:36:22.428Z,12662.00
2022-10-19T11:37:22.060Z,12613.00
2022-10-19T11:38:25.157Z,12564.00
2022-10-19T11:39:23.124Z,12541.00
2022-10-19T11:40:22.345Z,12477.00
2022-10-19T11:41:21.979Z,12496.00
2022-10-19T11:42:22.076Z,12321.00
2022-10-19T11:43:24.837Z,12312.00
2022-10-19T11:44:22.002Z,12085.00
2022-10-19T11:45:21.937Z,12177.00
2022-10-19T11:46:22.160Z,12543.00
2022-10-19T11:47:21.899Z,12414.00
2022-10-19T11:48:21.892Z,12502.00
2022-10-19T11:49:22.675Z,12772.00
2022-10-19T11:50:21.905Z,12933.00
2022-10-19T11:51:22.254Z,13212.00
2022-10-19T11:52:22.076Z,13186.00
2022-10-19T11:53:21.864Z,13347.00
2022-10-19T11:54:22.083Z,13631.00
2022-10-19T11:55:21.833Z,13926.00
2022-10-19T11:56:25.172Z,14213.00
2022-10-19T11:57:22.844Z,14074.00
2022-10-19T11:58:21.870Z,63355.00
2022-10-19T11:59:21.812Z,63222.00
2022-10-19T12:00:38.204Z,63078.00
2022-10-19T12:01:22.950Z,24018.00
2022-10-19T12:02:22.684Z,62851.00
2022-10-19T12:03:21.784Z,62661.00
2022-10-19T12:04:21.791Z,62541.00
2022-10-19T12:05:21.785Z,62416.00
2022-10-19T12:06:21.792Z,62411.00
2022-10-19T12:07:21.975Z,62317.00
2022-10-19T12:08:21.756Z,62301.00
2022-10-19T12:09:21.775Z,62241.00
2022-10-19T12:10:22.704Z,62348.00
2022-10-19T12:11:21.713Z,62257.00
2022-10-19T12:12:21.765Z,62355.00
2022-10-19T12:13:23.196Z,62156.00
2022-10-19T12:14:23.143Z,62166.00
2022-10-19T12:15:21.705Z,62142.00
2022-10-19T12:16:21.693Z,62163.00
2022-10-19T12:17:21.720Z,62196.00
2022-10-19T12:18:21.671Z,62129.00
2022-10-19T12:19:21.714Z,62095.00
2022-10-19T12:20:21.661Z,62123.00
2022-10-19T12:21:21.650Z,62184.00
2022-10-19T12:22:21.655Z,62311.00
2022-10-19T12:23:21.630Z,62317.00
2022-10-19T12:24:21.734Z,62306.00
2022-10-19T12:25:21.604Z,62241.00
2022-10-19T12:26:21.612Z,62330.00
2022-10-19T12:27:21.626Z,20724.00
2022-10-19T12:28:21.604Z,21513.00
2022-10-19T12:29:21.584Z,21387.00
2022-10-19T12:30:21.571Z,21718.00
2022-10-19T12:31:21.603Z,22976.00
2022-10-19T12:32:21.597Z,62421.00
2022-10-19T12:33:21.597Z,62539.00
2022-10-19T12:34:21.687Z,62368.00
2022-10-19T12:35:21.533Z,62394.00
2022-10-19T12:36:21.532Z,62615.00
2022-10-19T12:37:21.515Z,62693.00
2022-10-19T12:38:21.502Z,62482.00
2022-10-19T12:39:21.516Z,62463.00
2022-10-19T12:40:21.548Z,62435.00